sensor_id;sensor_type;location;lat;lon;timestamp;pressure;altitude;pressure_sealevel;temperature;humidity
22580;BME280;11456;47.030;15.396;2022-11-03T00:01:07;98295.78;;;15.09;91.56
22580;BME280;11456;47.030;15.396;2022-11-03T00:03:34;98301.19;;;15.09;92.03
22580;BME280;11456;47.030;15.396;2022-11-03T00:06:00;98308.84;;;15.13;91.98
22580;BME280;11456;47.030;15.396;2022-11-03T00:08:40;98307.09;;;15.04;92.89
22580;BME280;11456;47.030;15.396;2022-11-03T00:11:08;98298.13;;;15.04;93.08
22580;BME280;11456;47.030;15.396;2022-11-03T00:13:35;98300.00;;;15.03;93.27
22580;BME280;11456;47.030;15.396;2022-11-03T00:16:02;98295.91;;;14.99;93.67
22580;BME280;11456;47.030;15.396;2022-11-03T00:18:29;98302.88;;;15.02;93.72
22580;BME280;11456;47.030;15.396;2022-11-03T00:20:56;98297.94;;;14.97;93.82
22580;BME280;11456;47.030;15.396;2022-11-03T00:23:24;98306.09;;;15.05;93.35
22580;BME280;11456;47.030;15.396;2022-11-03T00:25:50;98304.06;;;15.07;93.70
22580;BME280;11456;47.030;15.396;2022-11-03T00:28:17;98300.16;;;15.02;94.11
22580;BME280;11456;47.030;15.396;2022-11-03T00:30:43;98298.81;;;14.98;94.39
22580;BME280;11456;47.030;15.396;2022-11-03T00:33:10;98298.97;;;15.04;94.41
22580;BME280;11456;47.030;15.396;2022-11-03T00:35:36;98295.75;;;15.01;94.38
22580;BME280;11456;47.030;15.396;2022-11-03T00:38:03;98295.03;;;14.99;94.75
22580;BME280;11456;47.030;15.396;2022-11-03T00:40:29;98300.66;;;14.97;95.01
22580;BME280;11456;47.030;15.396;2022-11-03T00:42:56;98295.53;;;14.94;95.68
22580;BME280;11456;47.030;15.396;2022-11-03T00:45:22;98295.91;;;14.99;95.05
22580;BME280;11456;47.030;15.396;2022-11-03T00:47:49;98291.47;;;14.98;95.40
22580;BME280;11456;47.030;15.396;2022-11-03T00:50:34;98298.59;;;14.99;94.75
22580;BME280;11456;47.030;15.396;2022-11-03T00:53:00;98292.53;;;14.97;95.00
22580;BME280;11456;47.030;15.396;2022-11-03T00:55:27;98284.22;;;15.07;94.58
22580;BME280;11456;47.030;15.396;2022-11-03T00:57:53;98286.75;;;15.00;95.18
22580;BME280;11456;47.030;15.396;2022-11-03T01:00:20;98286.44;;;15.03;95.21
22580;BME280;11456;47.030;15.396;2022-11-03T01:02:46;98280.16;;;15.03;94.71
22580;BME280;11456;47.030;15.396;2022-11-03T01:05:13;98278.31;;;15.03;95.33
22580;BME280;11456;47.030;15.396;2022-11-03T01:07:58;98287.78;;;15.07;95.45
22580;BME280;11456;47.030;15.396;2022-11-03T01:10:29;98286.94;;;15.07;95.09
22580;BME280;11456;47.030;15.396;2022-11-03T01:12:56;98279.97;;;15.04;95.64
22580;BME280;11456;47.030;15.396;2022-11-03T01:15:22;98276.94;;;15.07;95.34
22580;BME280;11456;47.030;15.396;2022-11-03T01:17:48;98272.03;;;15.11;94.96
22580;BME280;11456;47.030;15.396;2022-11-03T01:20:15;98275.59;;;15.03;94.94
22580;BME280;11456;47.030;15.396;2022-11-03T01:22:41;98272.88;;;15.03;95.40
22580;BME280;11456;47.030;15.396;2022-11-03T01:25:08;98271.19;;;15.18;94.70
22580;BME280;11456;47.030;15.396;2022-11-03T01:27:35;98269.84;;;15.14;95.28
22580;BME280;11456;47.030;15.396;2022-11-03T01:30:01;98271.22;;;15.43;93.20
22580;BME280;11456;47.030;15.396;2022-11-03T01:32:28;98267.13;;;15.14;94.04
22580;BME280;11456;47.030;15.396;2022-11-03T01:34:54;98266.09;;;15.07;95.25
22580;BME280;11456;47.030;15.396;2022-11-03T01:37:21;98257.94;;;14.99;95.94
22580;BME280;11456;47.030;15.396;2022-11-03T01:39:47;98259.97;;;15.05;95.41
22580;BME280;11456;47.030;15.396;2022-11-03T01:42:14;98256.59;;;15.03;95.63
22580;BME280;11456;47.030;15.396;2022-11-03T01:44:47;98260.66;;;15.07;95.44
22580;BME280;11456;47.030;15.396;2022-11-03T01:47:16;98259.31;;;15.11;95.51
22580;BME280;11456;47.030;15.396;2022-11-03T01:49:48;98256.41;;;15.05;96.42
22580;BME280;11456;47.030;15.396;2022-11-03T01:54:42;98261.69;;;15.14;95.72
22580;BME280;11456;47.030;15.396;2022-11-03T01:57:11;98253.22;;;15.09;95.29
22580;BME280;11456;47.030;15.396;2022-11-03T01:59:39;98254.97;;;15.35;94.75
22580;BME280;11456;47.030;15.396;2022-11-03T02:02:06;98250.50;;;15.17;95.49
22580;BME280;11456;47.030;15.396;2022-11-03T02:04:33;98248.50;;;15.28;94.95
22580;BME280;11456;47.030;15.396;2022-11-03T02:07:45;98246.97;;;15.17;95.55
22580;BME280;11456;47.030;15.396;2022-11-03T02:09:49;98242.38;;;15.25;95.44
22580;BME280;11456;47.030;15.396;2022-11-03T02:12:17;98241.03;;;15.21;94.97
22580;BME280;11456;47.030;15.396;2022-11-03T02:14:48;98236.28;;;15.15;95.60
22580;BME280;11456;47.030;15.396;2022-11-03T02:17:17;98234.03;;;15.11;95.19
22580;BME280;11456;47.030;15.396;2022-11-03T02:19:46;98236.56;;;15.04;95.98
22580;BME280;11456;47.030;15.396;2022-11-03T02:27:29;98234.88;;;15.11;95.93
22580;BME280;11456;47.030;15.396;2022-11-03T02:29:56;98227.78;;;15.02;96.33
22580;BME280;11456;47.030;15.396;2022-11-03T02:32:24;98220.47;;;15.11;96.00
22580;BME280;11456;47.030;15.396;2022-11-03T02:37:43;98219.44;;;14.96;97.03
22580;BME280;11456;47.030;15.396;2022-11-03T02:40:12;98226.38;;;14.90;97.69
22580;BME280;11456;47.030;15.396;2022-11-03T02:42:40;98216.88;;;14.78;98.17
22580;BME280;11456;47.030;15.396;2022-11-03T02:45:08;98219.19;;;14.73;98.51
22580;BME280;11456;47.030;15.396;2022-11-03T02:47:42;98233.44;;;14.75;99.25
22580;BME280;11456;47.030;15.396;2022-11-03T02:50:09;98230.03;;;14.73;99.28
22580;BME280;11456;47.030;15.396;2022-11-03T02:55:05;98225.09;;;14.34;100.00
22580;BME280;11456;47.030;15.396;2022-11-03T02:57:34;98231.81;;;14.40;100.00
22580;BME280;11456;47.030;15.396;2022-11-03T03:00:05;98233.66;;;14.39;100.00
22580;BME280;11456;47.030;15.396;2022-11-03T03:02:34;98240.00;;;14.30;100.00
22580;BME280;11456;47.030;15.396;2022-11-03T03:05:03;98232.56;;;14.32;100.00
22580;BME280;11456;47.030;15.396;2022-11-03T03:07:35;98238.31;;;14.29;100.00
22580;BME280;11456;47.030;15.396;2022-11-03T03:10:25;98226.75;;;14.19;100.00
22580;BME280;11456;47.030;15.396;2022-11-03T03:12:50;98231.75;;;14.06;100.00
22580;BME280;11456;47.030;15.396;2022-11-03T03:15:17;98229.72;;;14.08;100.00
22580;BME280;11456;47.030;15.396;2022-11-03T03:18:04;98223.56;;;13.98;100.00
22580;BME280;11456;47.030;15.396;2022-11-03T03:20:38;98231.31;;;13.93;100.00
22580;BME280;11456;47.030;15.396;2022-11-03T03:23:15;98230.56;;;13.83;100.00
22580;BME280;11456;47.030;15.396;2022-11-03T03:28:24;98220.50;;;13.93;100.00
22580;BME280;11456;47.030;15.396;2022-11-03T03:30:52;98224.94;;;14.02;100.00
22580;BME280;11456;47.030;15.396;2022-11-03T03:33:20;98218.78;;;13.92;100.00
22580;BME280;11456;47.030;15.396;2022-11-03T03:35:48;98220.50;;;13.93;100.00
22580;BME280;11456;47.030;15.396;2022-11-03T03:38:17;98225.47;;;13.80;100.00
22580;BME280;11456;47.030;15.396;2022-11-03T03:40:45;98221.63;;;13.82;100.00
22580;BME280;11456;47.030;15.396;2022-11-03T03:43:13;98218.69;;;13.76;100.00
22580;BME280;11456;47.030;15.396;2022-11-03T03:45:40;98219.44;;;13.86;100.00
22580;BME280;11456;47.030;15.396;2022-11-03T03:48:08;98213.72;;;13.89;100.00
22580;BME280;11456;47.030;15.396;2022-11-03T03:50:35;98217.41;;;13.88;100.00
22580;BME280;11456;47.030;15.396;2022-11-03T03:53:04;98216.66;;;14.03;100.00
22580;BME280;11456;47.030;15.396;2022-11-03T03:55:38;98212.28;;;14.11;100.00
22580;BME280;11456;47.030;15.396;2022-11-03T03:58:06;98208.72;;;14.10;100.00
22580;BME280;11456;47.030;15.396;2022-11-03T04:00:33;98208.78;;;14.18;100.00
22580;BME280;11456;47.030;15.396;2022-11-03T04:03:00;98213.84;;;14.13;100.00
22580;BME280;11456;47.030;15.396;2022-11-03T04:05:26;98216.50;;;14.05;100.00
22580;BME280;11456;47.030;15.396;2022-11-03T04:07:53;98221.84;;;13.97;100.00
22580;BME280;11456;47.030;15.396;2022-11-03T04:10:20;98225.91;;;13.93;100.00
22580;BME280;11456;47.030;15.396;2022-11-03T04:12:47;98220.50;;;13.93;100.00
22580;BME280;11456;47.030;15.396;2022-11-03T04:15:32;98217.13;;;13.99;100.00
22580;BME280;11456;47.030;15.396;2022-11-03T04:18:17;98218.84;;;14.00;100.00
22580;BME280;11456;47.030;15.396;2022-11-03T04:21:03;98209.44;;;14.12;100.00
22580;BME280;11456;47.030;15.396;2022-11-03T04:23:49;98208.69;;;14.02;100.00
22580;BME280;11456;47.030;15.396;2022-11-03T04:26:17;98215.81;;;13.77;100.00
22580;BME280;11456;47.030;15.396;2022-11-03T04:28:44;98214.50;;;13.81;100.00
22580;BME280;11456;47.030;15.396;2022-11-03T04:31:14;98213.31;;;13.84;100.00
22580;BME280;11456;47.030;15.396;2022-11-03T04:33:41;98209.38;;;13.78;100.00
22580;BME280;11456;47.030;15.396;2022-11-03T04:36:17;98206.38;;;13.81;100.00
22580;BME280;11456;47.030;15.396;2022-11-03T04:38:44;98202.53;;;13.92;100.00
22580;BME280;11456;47.030;15.396;2022-11-03T04:41:30;98205.38;;;13.82;100.00
22580;BME280;11456;47.030;15.396;2022-11-03T04:43:58;98205.63;;;13.97;100.00
22580;BME280;11456;47.030;15.396;2022-11-03T04:46:26;98203.06;;;13.95;100.00
22580;BME280;11456;47.030;15.396;2022-11-03T04:48:53;98205.53;;;13.81;100.00
22580;BME280;11456;47.030;15.396;2022-11-03T04:51:21;98198.34;;;13.97;100.00
22580;BME280;11456;47.030;15.396;2022-11-03T04:53:51;98204.97;;;14.03;100.00
22580;BME280;11456;47.030;15.396;2022-11-03T04:56:20;98202.66;;;14.08;100.00
22580;BME280;11456;47.030;15.396;2022-11-03T04:58:47;98201.59;;;14.01;100.00
22580;BME280;11456;47.030;15.396;2022-11-03T05:01:14;98203.59;;;13.99;100.00
22580;BME280;11456;47.030;15.396;2022-11-03T05:03:50;98205.63;;;13.97;100.00
22580;BME280;11456;47.030;15.396;2022-11-03T05:06:20;98196.81;;;13.95;100.00
22580;BME280;11456;47.030;15.396;2022-11-03T05:08:48;98196.19;;;14.01;100.00
22580;BME280;11456;47.030;15.396;2022-11-03T05:11:33;98189.50;;;13.95;100.00
22580;BME280;11456;47.030;15.396;2022-11-03T05:14:01;98179.53;;;13.96;100.00
22580;BME280;11456;47.030;15.396;2022-11-03T05:16:29;98178.13;;;13.84;100.00
22580;BME280;11456;47.030;15.396;2022-11-03T05:18:56;98175.78;;;13.89;100.00
22580;BME280;11456;47.030;15.396;2022-11-03T05:21:24;98183.22;;;13.87;100.00
22580;BME280;11456;47.030;15.396;2022-11-03T05:23:53;98185.03;;;13.78;100.00
22580;BME280;11456;47.030;15.396;2022-11-03T05:26:21;98177.75;;;13.53;100.00
22580;BME280;11456;47.030;15.396;2022-11-03T05:28:51;98181.09;;;13.73;100.00
22580;BME280;11456;47.030;15.396;2022-11-03T05:33:47;98179.75;;;13.77;100.00
22580;BME280;11456;47.030;15.396;2022-11-03T05:36:15;98178.66;;;13.61;100.00
22580;BME280;11456;47.030;15.396;2022-11-03T05:38:44;98180.03;;;13.65;100.00
22580;BME280;11456;47.030;15.396;2022-11-03T05:41:12;98172.59;;;13.68;100.00
22580;BME280;11456;47.030;15.396;2022-11-03T05:43:40;98188.72;;;13.51;100.00
22580;BME280;11456;47.030;15.396;2022-11-03T05:46:07;98189.97;;;13.39;100.00
22580;BME280;11456;47.030;15.396;2022-11-03T05:48:39;98180.66;;;13.59;100.00
22580;BME280;11456;47.030;15.396;2022-11-03T05:51:11;98181.09;;;13.73;100.00
22580;BME280;11456;47.030;15.396;2022-11-03T05:53:40;98173.56;;;13.58;100.00
22580;BME280;11456;47.030;15.396;2022-11-03T05:56:12;98182.03;;;13.20;100.00
22580;BME280;11456;47.030;15.396;2022-11-03T05:58:41;98183.28;;;13.25;100.00
22580;BME280;11456;47.030;15.396;2022-11-03T06:01:13;98195.63;;;13.10;100.00
22580;BME280;11456;47.030;15.396;2022-11-03T06:03:40;98186.78;;;13.18;100.00
22580;BME280;11456;47.030;15.396;2022-11-03T06:06:12;98181.97;;;13.12;100.00
22580;BME280;11456;47.030;15.396;2022-11-03T06:08:40;98192.78;;;13.12;100.00
22580;BME280;11456;47.030;15.396;2022-11-03T06:11:25;98195.88;;;13.17;100.00
22580;BME280;11456;47.030;15.396;2022-11-03T06:13:53;98193.31;;;12.98;100.00
22580;BME280;11456;47.030;15.396;2022-11-03T06:18:47;98190.28;;;13.01;100.00
22580;BME280;11456;47.030;15.396;2022-11-03T06:21:18;98190.16;;;13.20;100.00
22580;BME280;11456;47.030;15.396;2022-11-03T06:23:46;98190.94;;;13.30;100.00
22580;BME280;11456;47.030;15.396;2022-11-03T06:26:16;98192.41;;;13.24;100.00
22580;BME280;11456;47.030;15.396;2022-11-03T06:28:43;98197.56;;;13.36;100.00
22580;BME280;11456;47.030;15.396;2022-11-03T06:31:13;98199.59;;;13.16;100.00
22580;BME280;11456;47.030;15.396;2022-11-03T06:33:48;98200.28;;;13.36;100.00
22580;BME280;11456;47.030;15.396;2022-11-03T06:36:17;98203.72;;;13.46;100.00
22580;BME280;11456;47.030;15.396;2022-11-03T06:38:46;98209.63;;;13.41;100.00
22580;BME280;11456;47.030;15.396;2022-11-03T06:41:17;98208.25;;;13.37;100.00
22580;BME280;11456;47.030;15.396;2022-11-03T06:43:45;98216.41;;;13.45;100.00
22580;BME280;11456;47.030;15.396;2022-11-03T06:48:49;98206.88;;;13.59;100.00
22580;BME280;11456;47.030;15.396;2022-11-03T06:51:27;98212.00;;;13.62;100.00
22580;BME280;11456;47.030;15.396;2022-11-03T06:53:54;98213.91;;;13.70;100.00
22580;BME280;11456;47.030;15.396;2022-11-03T06:56:23;98216.78;;;13.68;100.00
22580;BME280;11456;47.030;15.396;2022-11-03T06:58:51;98216.38;;;13.37;100.00
22580;BME280;11456;47.030;15.396;2022-11-03T07:01:20;98210.59;;;13.58;100.00
22580;BME280;11456;47.030;15.396;2022-11-03T07:03:51;98204.53;;;13.90;100.00
22580;BME280;11456;47.030;15.396;2022-11-03T07:06:19;98207.94;;;13.92;100.00
22580;BME280;11456;47.030;15.396;2022-11-03T07:08:47;98203.31;;;14.10;100.00
22580;BME280;11456;47.030;15.396;2022-11-03T07:13:44;98207.16;;;14.59;100.00
22580;BME280;11456;47.030;15.396;2022-11-03T07:16:57;98194.78;;;14.65;98.52
22580;BME280;11456;47.030;15.396;2022-11-03T07:18:58;98207.31;;;14.58;96.67
22580;BME280;11456;47.030;15.396;2022-11-03T07:23:55;98194.94;;;14.29;95.60
22580;BME280;11456;47.030;15.396;2022-11-03T07:26:22;98205.56;;;14.49;94.49
22580;BME280;11456;47.030;15.396;2022-11-03T07:28:49;98200.44;;;14.88;91.62
22580;BME280;11456;47.030;15.396;2022-11-03T07:31:20;98196.50;;;14.74;92.90
22580;BME280;11456;47.030;15.396;2022-11-03T07:33:47;98200.53;;;14.62;93.35
22580;BME280;11456;47.030;15.396;2022-11-03T07:36:15;98197.84;;;14.70;92.82
22580;BME280;11456;47.030;15.396;2022-11-03T07:38:45;98180.47;;;14.97;92.23
22580;BME280;11456;47.030;15.396;2022-11-03T07:41:14;98187.47;;;14.57;87.59
22580;BME280;11456;47.030;15.396;2022-11-03T07:43:43;98186.00;;;14.71;88.57
22580;BME280;11456;47.030;15.396;2022-11-03T07:46:15;98176.34;;;14.76;84.57
22580;BME280;11456;47.030;15.396;2022-11-03T07:48:46;98174.88;;;15.06;87.58
22580;BME280;11456;47.030;15.396;2022-11-03T07:51:21;98170.13;;;15.24;84.52
22580;BME280;11456;47.030;15.396;2022-11-03T07:53:49;98163.38;;;15.53;82.86
22580;BME280;11456;47.030;15.396;2022-11-03T07:56:24;98164.72;;;15.73;82.35
22580;BME280;11456;47.030;15.396;2022-11-03T07:58:56;98162.31;;;15.78;81.27
22580;BME280;11456;47.030;15.396;2022-11-03T08:01:25;98163.84;;;16.36;77.10
22580;BME280;11456;47.030;15.396;2022-11-03T08:03:53;98155.66;;;16.44;71.94
22580;BME280;11456;47.030;15.396;2022-11-03T08:06:21;98156.59;;;16.59;71.87
22580;BME280;11456;47.030;15.396;2022-11-03T08:08:48;98157.53;;;16.43;72.08
22580;BME280;11456;47.030;15.396;2022-11-03T08:11:14;98146.22;;;16.24;70.96
22580;BME280;11456;47.030;15.396;2022-11-03T08:13:41;98153.97;;;16.43;69.12
22580;BME280;11456;47.030;15.396;2022-11-03T08:16:07;98155.34;;;15.84;75.33
22580;BME280;11456;47.030;15.396;2022-11-03T08:18:34;98153.41;;;16.09;73.60
22580;BME280;11456;47.030;15.396;2022-11-03T08:21:02;98146.56;;;16.21;73.51
22580;BME280;11456;47.030;15.396;2022-11-03T08:23:28;98138.38;;;16.29;72.78
22580;BME280;11456;47.030;15.396;2022-11-03T08:25:55;98124.66;;;16.53;70.52
22580;BME280;11456;47.030;15.396;2022-11-03T08:28:22;98126.69;;;16.90;68.60
22580;BME280;11456;47.030;15.396;2022-11-03T08:30:48;98130.41;;;16.66;65.03
22580;BME280;11456;47.030;15.396;2022-11-03T08:33:15;98122.22;;;17.20;67.41
22580;BME280;11456;47.030;15.396;2022-11-03T08:35:42;98108.66;;;17.87;61.52
22580;BME280;11456;47.030;15.396;2022-11-03T08:38:08;98105.09;;;17.49;61.30
22580;BME280;11456;47.030;15.396;2022-11-03T08:40:35;98097.78;;;17.12;63.07
22580;BME280;11456;47.030;15.396;2022-11-03T08:43:02;98099.19;;;17.45;61.00
22580;BME280;11456;47.030;15.396;2022-11-03T08:45:29;98094.69;;;17.52;58.39
22580;BME280;11456;47.030;15.396;2022-11-03T08:47:55;98088.81;;;17.03;63.34
22580;BME280;11456;47.030;15.396;2022-11-03T08:50:22;98092.78;;;17.38;62.65
22580;BME280;11456;47.030;15.396;2022-11-03T08:52:49;98086.19;;;17.70;60.38
22580;BME280;11456;47.030;15.396;2022-11-03T08:55:15;98076.50;;;17.68;59.65
22580;BME280;11456;47.030;15.396;2022-11-03T08:57:42;98075.13;;;17.34;61.49
22580;BME280;11456;47.030;15.396;2022-11-03T09:00:08;98070.72;;;16.96;61.83
22580;BME280;11456;47.030;15.396;2022-11-03T09:02:35;98073.72;;;16.78;61.58
22580;BME280;11456;47.030;15.396;2022-11-03T09:05:02;98075.28;;;17.18;61.03
22580;BME280;11456;47.030;15.396;2022-11-03T09:07:29;98070.50;;;17.20;62.87
22580;BME280;11456;47.030;15.396;2022-11-03T09:10:16;98072.31;;;17.42;60.40
22580;BME280;11456;47.030;15.396;2022-11-03T09:12:42;98078.97;;;16.26;65.34
22580;BME280;11456;47.030;15.396;2022-11-03T09:15:09;98080.03;;;16.17;65.13
22580;BME280;11456;47.030;15.396;2022-11-03T09:17:36;98072.56;;;16.41;64.68
22580;BME280;11456;47.030;15.396;2022-11-03T09:20:07;98066.84;;;16.36;65.78
22580;BME280;11456;47.030;15.396;2022-11-03T09:22:34;98058.97;;;16.72;63.92
22580;BME280;11456;47.030;15.396;2022-11-03T09:25:01;98058.44;;;17.00;63.17
22580;BME280;11456;47.030;15.396;2022-11-03T09:27:28;98055.09;;;17.12;62.29
22580;BME280;11456;47.030;15.396;2022-11-03T09:29:55;98052.88;;;16.70;62.56
22580;BME280;11456;47.030;15.396;2022-11-03T09:32:38;98050.34;;;16.38;65.27
22580;BME280;11456;47.030;15.396;2022-11-03T09:35:05;98051.31;;;16.45;64.25
22580;BME280;11456;47.030;15.396;2022-11-03T09:37:31;98049.31;;;16.70;63.29
22580;BME280;11456;47.030;15.396;2022-11-03T09:39:58;98046.91;;;16.13;65.39
22580;BME280;11456;47.030;15.396;2022-11-03T09:42:24;98037.78;;;16.37;64.79
22580;BME280;11456;47.030;15.396;2022-11-03T09:44:52;98045.66;;;16.55;64.34
22580;BME280;11456;47.030;15.396;2022-11-03T09:47:24;98047.81;;;17.57;61.57
22580;BME280;11456;47.030;15.396;2022-11-03T09:49:53;98035.16;;;16.74;65.04
22580;BME280;11456;47.030;15.396;2022-11-03T09:52:20;98029.94;;;16.65;64.04
22580;BME280;11456;47.030;15.396;2022-11-03T09:54:47;98022.13;;;16.70;63.61
22580;BME280;11456;47.030;15.396;2022-11-03T09:57:14;98022.44;;;16.44;64.58
22580;BME280;11456;47.030;15.396;2022-11-03T09:59:42;98020.41;;;15.76;66.81
22580;BME280;11456;47.030;15.396;2022-11-03T10:02:18;98016.22;;;16.04;68.21
22580;BME280;11456;47.030;15.396;2022-11-03T10:04:47;98008.38;;;16.10;66.33
22580;BME280;11456;47.030;15.396;2022-11-03T10:07:14;97998.50;;;16.17;63.61
22580;BME280;11456;47.030;15.396;2022-11-03T10:09:42;98001.41;;;16.38;62.70
22580;BME280;11456;47.030;15.396;2022-11-03T10:12:10;97980.38;;;16.77;61.34
22580;BME280;11456;47.030;15.396;2022-11-03T10:14:38;97976.81;;;17.29;63.20
22580;BME280;11456;47.030;15.396;2022-11-03T10:17:04;97977.06;;;17.72;62.46
22580;BME280;11456;47.030;15.396;2022-11-03T10:19:31;97970.34;;;17.30;59.42
22580;BME280;11456;47.030;15.396;2022-11-03T10:21:58;97964.41;;;17.12;60.84
22580;BME280;11456;47.030;15.396;2022-11-03T10:24:24;97961.88;;;16.96;59.17
22580;BME280;11456;47.030;15.396;2022-11-03T10:26:52;97957.75;;;17.00;58.86
22580;BME280;11456;47.030;15.396;2022-11-03T10:29:26;97958.44;;;17.75;57.69
22580;BME280;11456;47.030;15.396;2022-11-03T10:31:56;97947.16;;;17.78;58.04
22580;BME280;11456;47.030;15.396;2022-11-03T10:34:33;97944.81;;;17.60;59.10
22580;BME280;11456;47.030;15.396;2022-11-03T10:37:08;97934.69;;;17.25;60.16
22580;BME280;11456;47.030;15.396;2022-11-03T10:39:35;97937.09;;;17.49;60.18
22580;BME280;11456;47.030;15.396;2022-11-03T10:42:02;97923.03;;;17.46;58.32
22580;BME280;11456;47.030;15.396;2022-11-03T10:44:29;97918.44;;;17.02;59.88
22580;BME280;11456;47.030;15.396;2022-11-03T10:46:57;97908.41;;;17.17;59.76
22580;BME280;11456;47.030;15.396;2022-11-03T10:49:25;97907.16;;;16.91;59.31
22580;BME280;11456;47.030;15.396;2022-11-03T10:51:53;97907.63;;;16.79;60.15
22580;BME280;11456;47.030;15.396;2022-11-03T10:54:21;97896.84;;;16.86;59.89
22580;BME280;11456;47.030;15.396;2022-11-03T10:56:48;97892.31;;;16.78;60.53
22580;BME280;11456;47.030;15.396;2022-11-03T10:59:17;97884.81;;;16.43;61.00
22580;BME280;11456;47.030;15.396;2022-11-03T11:01:44;97883.09;;;16.65;61.38
22580;BME280;11456;47.030;15.396;2022-11-03T11:04:15;97887.56;;;16.80;62.60
22580;BME280;11456;47.030;15.396;2022-11-03T11:06:42;97885.78;;;16.88;60.79
22580;BME280;11456;47.030;15.396;2022-11-03T11:09:10;97877.41;;;17.62;59.32
22580;BME280;11456;47.030;15.396;2022-11-03T11:11:37;97871.31;;;17.46;59.63
22580;BME280;11456;47.030;15.396;2022-11-03T11:14:33;97865.78;;;17.39;57.64
22580;BME280;11456;47.030;15.396;2022-11-03T11:17:02;97862.22;;;17.24;60.38
22580;BME280;11456;47.030;15.396;2022-11-03T11:19:29;97853.78;;;17.34;58.72
22580;BME280;11456;47.030;15.396;2022-11-03T11:21:57;97857.22;;;17.42;59.00
22580;BME280;11456;47.030;15.396;2022-11-03T11:27:54;97842.38;;;18.66;55.78
22580;BME280;11456;47.030;15.396;2022-11-03T11:29:59;97837.28;;;18.63;54.69
22580;BME280;11456;47.030;15.396;2022-11-03T11:35:08;97835.81;;;17.90;58.47
22580;BME280;11456;47.030;15.396;2022-11-03T11:37:35;97824.50;;;17.93;57.53
22580;BME280;11456;47.030;15.396;2022-11-03T11:40:09;97831.88;;;17.99;56.99
22580;BME280;11456;47.030;15.396;2022-11-03T11:42:55;97825.88;;;18.53;56.12
22580;BME280;11456;47.030;15.396;2022-11-03T11:48:17;97806.19;;;18.57;58.17
22580;BME280;11456;47.030;15.396;2022-11-03T11:50:44;97801.22;;;19.43;53.04
22580;BME280;11456;47.030;15.396;2022-11-03T11:53:12;97804.19;;;19.00;55.69
22580;BME280;11456;47.030;15.396;2022-11-03T11:55:40;97799.41;;;19.15;54.91
22580;BME280;11456;47.030;15.396;2022-11-03T11:58:12;97783.69;;;19.78;53.26
22580;BME280;11456;47.030;15.396;2022-11-03T12:00:49;97782.63;;;19.18;55.53
22580;BME280;11456;47.030;15.396;2022-11-03T12:03:16;97787.22;;;19.11;54.60
22580;BME280;11456;47.030;15.396;2022-11-03T12:05:47;97775.50;;;17.99;56.80
22580;BME280;11456;47.030;15.396;2022-11-03T12:08:18;97772.94;;;17.55;60.14
22580;BME280;11456;47.030;15.396;2022-11-03T12:10:53;97764.78;;;18.19;59.59
22580;BME280;11456;47.030;15.396;2022-11-03T12:16:01;97747.41;;;17.56;59.68
22580;BME280;11456;47.030;15.396;2022-11-03T12:20:58;97733.91;;;17.48;60.06
22580;BME280;11456;47.030;15.396;2022-11-03T12:23:35;97728.50;;;17.12;60.82
22580;BME280;11456;47.030;15.396;2022-11-03T12:26:03;97720.53;;;17.11;61.71
22580;BME280;11456;47.030;15.396;2022-11-03T12:28:30;97722.59;;;17.45;62.45
22580;BME280;11456;47.030;15.396;2022-11-03T12:30:57;97723.44;;;17.45;62.41
22580;BME280;11456;47.030;15.396;2022-11-03T12:33:28;97721.56;;;17.10;61.66
22580;BME280;11456;47.030;15.396;2022-11-03T12:35:55;97726.78;;;17.26;63.04
22580;BME280;11456;47.030;15.396;2022-11-03T12:38:22;97710.19;;;17.21;62.94
22580;BME280;11456;47.030;15.396;2022-11-03T12:40:49;97719.66;;;16.74;62.10
22580;BME280;11456;47.030;15.396;2022-11-03T12:43:16;97703.25;;;16.68;62.48
22580;BME280;11456;47.030;15.396;2022-11-03T12:45:43;97702.75;;;16.94;64.34
22580;BME280;11456;47.030;15.396;2022-11-03T12:48:09;97692.75;;;17.15;64.26
22580;BME280;11456;47.030;15.396;2022-11-03T12:50:36;97705.66;;;17.28;63.61
22580;BME280;11456;47.030;15.396;2022-11-03T12:53:04;97687.00;;;17.46;61.65
22580;BME280;11456;47.030;15.396;2022-11-03T12:55:33;97691.53;;;17.39;61.77
22580;BME280;11456;47.030;15.396;2022-11-03T12:58:02;97671.28;;;17.48;63.12
22580;BME280;11456;47.030;15.396;2022-11-03T13:00:29;97657.97;;;17.32;63.11
22580;BME280;11456;47.030;15.396;2022-11-03T13:02:55;97655.28;;;17.17;63.77
22580;BME280;11456;47.030;15.396;2022-11-03T13:05:22;97646.53;;;17.22;62.33
22580;BME280;11456;47.030;15.396;2022-11-03T13:07:50;97646.53;;;17.86;60.51
22580;BME280;11456;47.030;15.396;2022-11-03T13:10:17;97650.06;;;17.86;60.93
22580;BME280;11456;47.030;15.396;2022-11-03T13:12:43;97646.94;;;17.61;60.34
22580;BME280;11456;47.030;15.396;2022-11-03T13:15:10;97639.28;;;18.06;60.21
22580;BME280;11456;47.030;15.396;2022-11-03T13:17:38;97627.59;;;18.12;59.18
22580;BME280;11456;47.030;15.396;2022-11-03T13:20:25;97624.66;;;18.14;58.76
22580;BME280;11456;47.030;15.396;2022-11-03T13:22:52;97628.06;;;18.16;58.66
22580;BME280;11456;47.030;15.396;2022-11-03T13:25:19;97624.72;;;18.20;58.09
22580;BME280;11456;47.030;15.396;2022-11-03T13:27:45;97621.81;;;18.28;57.83
22580;BME280;11456;47.030;15.396;2022-11-03T13:30:14;97623.78;;;18.07;58.83
22580;BME280;11456;47.030;15.396;2022-11-03T13:32:40;97612.22;;;18.39;58.16
22580;BME280;11456;47.030;15.396;2022-11-03T13:35:07;97626.66;;;17.92;58.58
22580;BME280;11456;47.030;15.396;2022-11-03T13:37:39;97622.94;;;17.72;60.06
22580;BME280;11456;47.030;15.396;2022-11-03T13:40:06;97614.75;;;17.72;60.31